AirNav   Jet Aviation Boston
 
 974 users online  

M24 Dean Griffin Memorial Airport
Wiggins, Mississippi, USA

GOING TO WIGGINS?


FAA INFORMATION EFFECTIVE 29 MARCH 2018

Location

FAA Identifier: M24
Lat/Long: 30-50-34.7400N / 089-09-41.3400W
30-50.579000N / 089-09.689000W
30.8429833 / -89.1614833
(estimated)
Elevation: 273 ft. / 83 m (estimated)
Variation: 02E (1985)
From city: 1 mile W of WIGGINS, MS
Time zone: UTC -5 (UTC -6 during Standard Time)
Zip code: 39577

Airport Operations

Airport use: Open to the public
Control tower: no
ARTCC: HOUSTON CENTER
FSS: GREENWOOD FLIGHT SERVICE STATION
NOTAMs facility: GWO (NOTAM-D service available)
Attendance: 0800-1700
Wind indicator: lighted
Segmented circle: no
Lights: ACTVT MIRL RY 17/35 - CTAF. PAPI RY 17 & 35 OPER CONTINUOUSLY.
Beacon: white-green (lighted land airport)
Operates sunset to sunrise.

Airport Communications

CTAF/UNICOM: 122.8

Nearby radio navigation aids

VOR radial/distance  VOR name  Freq  Var
GPTr349/26.5GULFPORT VORTAC109.0002E
PCUr055/33.9PICAYUNE VOR/DME112.2005E
LBYr160/35.7EATON VORTAC110.6005E
GCVr241/38.0GREENE COUNTY VORTAC115.7005E

 
NDB name  Hdg/Dist  Freq  Var  ID
BOGALUSA094/36.235300WGVB --. ...- -...

Airport Services

Fuel available: 100LL
FUEL AVAILABLE 24/7 W/ C.C.
Parking: tiedowns
Airframe service: NONE
Bottled oxygen: NONE
Bulk oxygen: NONE

Runway Information

Runway 17/35

Dimensions: 3500 x 75 ft. / 1067 x 23 m
Surface: asphalt, in good condition
Weight bearing capacity: 
Single wheel: 20.0
Runway edge lights: medium intensity
Gradient: N
RUNWAY 17  RUNWAY 35
Latitude: 30-50.865667N30-50.292500N
Longitude: 089-09.729333W089-09.648833W
Elevation: 273.0 ft.244.8 ft.
Gradient: 0.6%0.8% UP
Traffic pattern: leftleft
Runway heading: 171 magnetic, 173 true351 magnetic, 353 true
Displaced threshold: 500 ft.no
Markings: basic, in good conditionbasic, in good condition
Visual slope indicator: 2-light PAPI on left2-light PAPI on left
Obstructions: 41 ft. tree, 1200 ft. from runway, 150 ft. left of centerline, 24:1 slope to clear
APPROACH SLOPE 36:1 TO THE DSPLCD THLD.
62 ft. trees, 1440 ft. from runway, 20:1 slope to clear

Airport Ownership and Management from official FAA records

Ownership: Publicly-owned
Owner: CITY OF WIGGINS-STONE CO
117 FIRST STREET
WIGGINS, MS 39577
Phone 601-928-7221
Manager: AIRPORT BOARD
P.O. BOX 219
WIGGINS, MS 39577
Phone 601-928-7221
MR. DURON HATTEN, SEC/TREAS OF ARPT BOARD.

Airport Operational Statistics

Aircraft based on the field: 10
Single engine airplanes: 9
Ultralights: 1
    
Aircraft operations: avg 35/day *
51% local general aviation
45% transient general aviation
4% military
* for 12-month period ending 05 April 2017

Instrument Procedures

There are no published instrument procedures at M24.

Some nearby airports with instrument procedures:

M13 - Poplarville-Pearl River County Airport (18 nm W)
KHBG - Hattiesburg Bobby L Chain Municipal Airport (26 nm N)
KGPT - Gulfport-Biloxi International Airport (27 nm S)
KBIX - Keesler Air Force Base (29 nm SE)
KHSA - Stennis International Airport (32 nm SW)
 
Loc | Ops | Rwys | IFR | FBO | Links
Com | Nav | Svcs | Stats | Notes

AirNav Hotels Sweepstakes
 
Area around M24 (Dean Griffin Memorial Airport)
 
Road maps at: MapQuest Bing Google
 
Aerial photo
No photo
 
Sectional chart

 
Airport distance calculator
Flying to Dean Griffin Memorial Airport? Find the distance to fly.

From to M24

Sunrise and sunset
Times for 22-Apr-2018
 Local
(UTC-5)
 Zulu
(UTC)
Morning civil twilight05:5710:57
Sunrise06:2211:22
Sunset19:2800:28
Evening civil twilight19:5300:53

Current date and time
Zulu (UTC)  23-Apr-2018 00:11:03
Local (UTC-5)  22-Apr-2018 19:11:03
 
METAR
KHBG 
26nm N 
222353Z AUTO 32004KT 10SM FEW024 BKN031 BKN043 21/17 A2985 RMK AO2 SLP106 60014 T02110172 10244 20206 51022
KGPT 
26nm S 
222353Z 28007KT 10SM CLR 24/17 A2983 RMK AO2 SLP101 T02440167 10267 20233 53008
KBIX 
29nm SE 
222356Z AUTO 32004KT 10SM CLR 24/17 A2984 RMK AO2 SLP108 T02380168 10253 20229 53007 $
KHSA 
32nm SW 
222350Z 30008KT 7SM FEW050 23/16 A2984
KBXA 
36nm W 
222355Z AUTO 30004KT 10SM SCT045 24/15 A2984 RMK AO2 T02400152 10259 20223
KPIB 
38nm N 
222356Z AUTO 29004KT 10SM SCT050 18/17 A2986 RMK AO2 RAB18E32 SLP112 P0000 60007 T01830167 10222 20183 51021
KLUL 
38nm N 
222355Z AUTO 29003KT 10SM OVC060 18/16 A2985 RMK AO2 T01830163
KPQL 
40nm SE 
222353Z AUTO 21004KT 10SM CLR 22/19 A2984 RMK AO2 SLP107 60005 T02220194 10250 20217 53002
K0R0 
43nm NW 
222355Z AUTO 34005KT 10SM FEW036 BKN047 BKN055 20/17 A2989 RMK AO2
KASD 
47nm SW 
222353Z AUTO 00000KT 10SM FEW041 24/16 A2984 RMK AO2 SLP103 60000 T02440161 10267 20233 53003
TAF
KHBG 
26nm N 
221727Z 2218/2318 17012G19KT P6SM VCTS BKN015CB OVC025 FM222100 21011KT P6SM OVC040 FM230200 29007KT P6SM OVC050 FM230800 30004KT P6SM OVC007 FM231000 29005KT 5SM BR OVC004 FM231400 27009KT P6SM OVC010 FM231600 27009KT P6SM OVC040
KGPT 
26nm S 
221725Z 2218/2318 17017G24KT P6SM VCSH OVC025 TEMPO 2218/2219 BKN015 FM221900 19015KT P6SM BKN025 OVC050 FM222300 22010KT P6SM SCT025 OVC050 FM231300 29007KT P6SM SCT050 BKN250
KBIX 
29nm SE 
221540Z 2215/2316 14010G15KT 8000 -SHRA SCT020 SCT050 BKN100 QNH2982INS TEMPO 2215/2220 14015G25KT BECMG 2221/2222 14010G15KT 9999 NSW SCT005 BKN030 QNH2980INS BECMG 2300/2301 24009KT 9999 SCT020 QNH2984INS TX24/2221Z TN18/2310Z LAST NO AMDS AFT 2215 NEXT 2310
NOTAMs
Click for the latest NOTAMs
NOTAMs are issued by the DoD/FAA and will open in a separate window not controlled by AirNav.

 

 
 

FBO, Fuel Providers, and Aircraft Ground Support

  
 Business Name 
 
 Contact 
 
 Services / Description 
 
Fuel Prices
 
Comments
  
Dean Griffin Memorial Airport 601-928-6495
no information available

If you are affiliated with Dean Griffin Memorial Airport and would like to show here your services, contact info, web link, logo, and more, click here
100LL
SS $4.30 
 Updated 20-Apr-2018
 
   write
SS=Self service
Update Fuel Prices
 

Would you like to see your business listed on this page?

 If your business provides an interesting product or service to pilots, flight crews, aircraft, or users of the Dean Griffin Memorial Airport, you should consider listing it here.  To start the listing process, click on the button below
 
Add a business
 

Other Pages about Dean Griffin Memorial Airport

Update a link
 
Copyright © AirNav, LLC. All rights reserved. Privacy Policy  Contact